Lanzhou, China
Current Conditions -  °F | °C
As of 1:00 AM on Saturday 01 Nov 2014 (Local Time) from ZLLL Reporting Station
Broken Clouds Broken Clouds  
Wind Chill: 34°   Ceiling: 4600
Heat Index: 34°   Visibility: 6mi
Dew Point: 21°   Wind: 0mph
Humidity: 60%   Direction: NA
Pressure: 30.39"   Gusts: NA
Location:  36.05°N, 103.68°E
Report Text: ZLLL 311700Z 00000MPS 9999 BKN046 01/M06 Q1029 NOSIG
Loading
Personal Weather Stations






























Interactive Weather Map
Tropical Storm Tracking
New forecast layout! Learn more

10-Day Weather Forecast

Advertisements
Track Severe Weather on mobile